createdAt,value
2023-02-04T00:05:58.676Z,99.90
2023-02-04T00:16:03.781Z,99.90
2023-02-04T00:26:07.842Z,99.90
2023-02-04T00:36:13.124Z,99.90
2023-02-04T00:46:16.773Z,99.90
2023-02-04T00:56:21.914Z,99.90
2023-02-04T01:06:26.193Z,99.90
2023-02-04T01:16:31.372Z,99.90
2023-02-04T01:26:35.313Z,99.90
2023-02-04T01:36:40.396Z,99.90
2023-02-04T01:46:44.220Z,99.90
2023-02-04T01:56:52.283Z,99.90
2023-02-04T02:06:58.980Z,99.90
2023-02-04T02:17:04.007Z,99.90
2023-02-04T02:27:11.908Z,99.90
2023-02-04T02:37:15.764Z,99.90
2023-02-04T02:47:23.985Z,99.90
2023-02-04T02:57:27.656Z,99.90
2023-02-04T03:07:33.071Z,99.90
2023-02-04T03:17:36.873Z,99.90
2023-02-04T03:27:42.002Z,99.90
2023-02-04T03:37:45.980Z,99.90
2023-02-04T03:47:51.017Z,99.90
2023-02-04T03:57:55.033Z,99.90
2023-02-04T04:08:00.846Z,99.90
2023-02-04T04:18:05.771Z,99.90
2023-02-04T04:28:11.043Z,99.90
2023-02-04T04:38:14.719Z,99.90
2023-02-04T04:48:21.738Z,99.90
2023-02-04T04:58:25.447Z,99.90
2023-02-04T05:08:30.996Z,99.90
2023-02-04T05:18:34.907Z,99.90
2023-02-04T05:28:40.574Z,99.90
2023-02-04T05:38:44.387Z,99.90
2023-02-04T05:48:49.438Z,99.90
2023-02-04T05:58:53.131Z,99.90
2023-02-04T06:08:58.875Z,99.90
2023-02-04T06:19:02.628Z,99.90
2023-02-04T06:29:07.750Z,99.90
2023-02-04T06:39:11.704Z,99.90
2023-02-04T06:49:16.950Z,99.90
2023-02-04T06:59:20.685Z,99.90
2023-02-04T07:09:25.977Z,99.90
2023-02-04T07:19:29.667Z,99.90
2023-02-04T07:29:35.142Z,99.90
2023-02-04T07:39:38.847Z,99.90
2023-02-04T07:49:43.985Z,99.90
2023-02-04T07:59:47.878Z,99.90
2023-02-04T08:09:53.611Z,99.90
2023-02-04T08:19:57.993Z,99.90
2023-02-04T08:30:03.472Z,99.90
2023-02-04T08:40:08.037Z,99.90
2023-02-04T08:50:13.520Z,99.90
2023-02-04T09:00:18.367Z,99.90
2023-02-04T09:10:24.241Z,99.90
2023-02-04T09:20:29.513Z,99.90
2023-02-04T09:30:35.218Z,99.90
2023-02-04T09:40:44.656Z,99.90
2023-02-04T09:50:50.548Z,99.90
2023-02-04T10:01:00.435Z,99.90
2023-02-04T10:11:06.418Z,99.90
2023-02-04T10:21:17.602Z,99.90
2023-02-04T10:31:36.573Z,99.90
2023-02-04T10:41:41.044Z,99.90
2023-02-04T10:51:46.534Z,99.90
2023-02-04T11:01:51.017Z,99.90
2023-02-04T11:12:00.016Z,99.90
2023-02-04T11:22:23.422Z,99.90
2023-02-04T11:32:38.553Z,99.80
2023-02-04T11:42:43.998Z,99.80
2023-02-04T11:52:49.212Z,96.50
2023-02-04T12:02:57.400Z,97.20
2023-02-04T12:13:03.828Z,96.80
2023-02-04T12:23:08.818Z,96.70
2023-02-04T12:33:15.117Z,93.20
2023-02-04T12:43:18.922Z,91.40
2023-02-04T12:53:24.510Z,90.50
2023-02-04T13:03:28.339Z,89.00
2023-02-04T13:13:33.438Z,88.60
2023-02-04T13:23:37.845Z,84.80
2023-02-04T13:33:43.440Z,77.40
2023-02-04T13:43:47.147Z,78.50
2023-02-04T13:53:52.659Z,79.80
2023-02-04T14:03:56.557Z,92.00
2023-02-04T14:14:02.338Z,85.60
2023-02-04T14:24:06.334Z,92.10
2023-02-04T14:34:11.869Z,91.60
2023-02-04T14:44:20.948Z,99.00
2023-02-04T14:54:27.295Z,99.20
2023-02-04T15:04:31.210Z,98.20
2023-02-04T15:14:36.508Z,99.90
2023-02-04T15:24:40.417Z,99.90
2023-02-04T15:34:45.524Z,99.90
2023-02-04T15:44:49.231Z,99.90
2023-02-04T15:54:55.016Z,99.90
2023-02-04T16:04:58.952Z,99.90
2023-02-04T16:15:04.039Z,99.90
2023-02-04T16:25:08.653Z,99.90
2023-02-04T16:35:14.533Z,99.90
2023-02-04T16:45:18.537Z,99.90
2023-02-04T16:55:26.199Z,99.90
2023-02-04T17:05:30.167Z,99.90
2023-02-04T17:15:35.531Z,99.90
2023-02-04T17:25:39.552Z,99.90
2023-02-04T17:35:44.663Z,99.90
2023-02-04T17:45:48.381Z,99.90
2023-02-04T17:55:54.591Z,99.90
2023-02-04T18:05:58.946Z,99.90
2023-02-04T18:16:18.410Z,99.70
2023-02-04T18:26:26.192Z,98.50
2023-02-04T18:36:34.681Z,98.20
2023-02-04T18:46:44.099Z,97.70
2023-02-04T18:56:50.900Z,97.10
2023-02-04T19:06:56.872Z,96.90
2023-02-04T19:17:22.120Z,96.70
2023-02-04T19:27:33.007Z,97.30
2023-02-04T19:37:42.515Z,97.10
2023-02-04T19:47:46.702Z,97.20
2023-02-04T19:57:54.299Z,97.70
2023-02-04T20:08:01.422Z,98.50
2023-02-04T20:18:15.607Z,98.50
2023-02-04T20:28:36.148Z,99.90
2023-02-04T20:38:41.290Z,99.90
2023-02-04T20:48:45.557Z,99.90
2023-02-04T20:58:52.013Z,99.90
2023-02-04T21:08:57.375Z,99.90
2023-02-04T21:19:02.472Z,99.90
2023-02-04T21:29:06.525Z,99.90
2023-02-04T21:39:11.639Z,99.90
2023-02-04T21:49:16.384Z,99.90
2023-02-04T21:59:22.628Z,99.90
2023-02-04T22:09:26.619Z,99.90
2023-02-04T22:19:32.046Z,99.90
2023-02-04T22:29:35.847Z,99.90
2023-02-04T22:39:40.858Z,99.90
2023-02-04T22:49:46.907Z,99.90
2023-02-04T22:59:52.055Z,99.90
2023-02-04T23:09:55.789Z,99.90
2023-02-04T23:20:01.372Z,99.90
2023-02-04T23:30:06.651Z,99.90
2023-02-04T23:40:12.396Z,99.90
2023-02-04T23:50:16.191Z,99.90
